Terminal Aerodrome Forecast
Issued by NWS

Home | Current Version | Previous Version | Graphics & Text | Print | Product List | Glossary On
Versions: 1 2 3 4 5 6 7 8 9 10 11 12 13 14 15 16 17 18 19 20 21
000
FTUS43 KGRB 202333
TAFATW
TAF
KATW 202333Z 2100/2124 07006KT P6SM SCT250
     FM211400 10007KT P6SM BKN050
     FM211700 11008KT 5SM -RA BR BKN030
     FM212300 10007KT P6SM BKN035=

USA.gov is the U.S. government's official web portal to all federal, state and local government web resources and services.